New Everest — 3EUZ8 — position and weather

sailwx.info

Track history (hours):
 
Tides and Currents Weather Stations Pressure Air Temp Water Temp Dewpoint Dewpoint Depression Visibility Wind Speed Wind Dir Waves Ship Positions

New Everest

Last reported at 2017-Nov-06 02:30 UTC. Time now 2017-Nov-24 15:16 UTC.
Position N 01°15' E 103°53'.
Warning: this ship's position is 18 days out of date.

Length 176 m; draft 6.2 m.

Type: Cargo ship. MMSI: 372865000.

Date/timePositionNaut miles runAvg speedWind from/ knotsBaromVisibWave heightAir tempDewpointWater temp
2017-Nov-06 02:30N 01°15' E 103°53'0 0.0
2017-Nov-06 02:00N 01°15' E 103°53'0 0.1
2017-Nov-06 01:30N 01°15' E 103°53'0 0.0
2017-Nov-06 01:00N 01°15' E 103°53'0 0.0
2017-Nov-06 00:30N 01°15' E 103°53'0 0.0
2017-Nov-06 00:00N 01°15' E 103°53'0 0.0
2017-Nov-05 23:24N 01°15' E 103°53'0 0.0
2017-Nov-05 23:00N 01°15' E 103°53'0 0.0
2017-Nov-05 22:30N 01°15' E 103°53'0 0.0
2017-Nov-05 22:00N 01°15' E 103°53'0 0.1
2017-Nov-05 21:30N 01°15' E 103°53'0 0.0
2017-Nov-05 21:00N 01°15' E 103°53'0 0.0
2017-Nov-05 20:30N 01°15' E 103°53'0 0.1
2017-Nov-05 20:00N 01°15' E 103°53'0 0.1
2017-Nov-05 19:27N 01°15' E 103°53'0 0.0
2017-Nov-05 19:00N 01°15' E 103°53'0 0.1
2017-Nov-05 18:30N 01°15' E 103°53'0 0.1
2017-Nov-05 18:00N 01°15' E 103°53'0 0.7
2017-Nov-05 17:30N 01°15' E 103°53'2 3.7
2017-Nov-05 17:00N 01°13' E 103°53'4 8.2
2017-Nov-05 16:30N 01°11' E 103°50'5 9.3
2017-Nov-05 16:00N 01°08' E 103°46'5 9.7
2017-Nov-05 15:30N 01°04' E 103°43'5 8.7
2017-Nov-05 14:59N 01°03' E 103°38'4 8.5
2017-Nov-05 14:30N 01°05' E 103°35'4 6.9
2017-Nov-05 13:58N 01°07' E 103°32'611.8
2017-Nov-05 13:29N 01°09' E 103°27'612.1
2017-Nov-05 12:57N 01°13' E 103°22'30911.8
2017-Nov-04 10:49N 05°13' E 100°05'510.5
2017-Nov-04 10:20N 05°18' E 100°05'411.3
2017-Nov-04 10:00N 05°22' E 100°05'711.6
2017-Nov-04 09:24N 05°28' E 100°07'512.5
2017-Nov-04 08:59N 05°32' E 100°10'510.3
2017-Nov-04 08:30N 05°34' E 100°15'510.4
2017-Nov-04 08:01N 05°31' E 100°19'5 9.9
2017-Nov-04 07:30N 05°26' E 100°21'3 5.5
2017-Nov-04 07:00N 05°23' E 100°22'0 0.0
2017-Nov-04 06:30N 05°23' E 100°22'0 0.0
2017-Nov-04 06:00N 05°23' E 100°22'0 0.0
2017-Nov-04 05:30N 05°23' E 100°22'0 0.0
2017-Nov-04 05:00N 05°23' E 100°22'0 0.0
2017-Nov-04 04:30N 05°23' E 100°22'0 0.0
2017-Nov-04 04:00N 05°23' E 100°22'0 0.0
2017-Nov-04 03:30N 05°23' E 100°22'0 0.0
2017-Nov-04 03:00N 05°23' E 100°22'0 0.0
2017-Nov-04 02:30N 05°23' E 100°22'0 0.0
2017-Nov-04 02:00N 05°23' E 100°22'0 0.0
2017-Nov-04 01:30N 05°23' E 100°22'0 0.0
2017-Nov-04 01:00N 05°23' E 100°22'0 0.0
2017-Nov-04 00:30N 05°23' E 100°22'0 0.0
2017-Nov-04 00:00N 05°23' E 100°22'0 0.1
2017-Nov-03 23:30N 05°23' E 100°22'0 0.1
2017-Nov-03 23:00N 05°23' E 100°22'0 0.0
2017-Nov-03 22:30N 05°23' E 100°22'0 0.0
2017-Nov-03 22:00N 05°23' E 100°22'0 0.0
2017-Nov-03 21:30N 05°23' E 100°22'0 0.0
2017-Nov-03 21:00N 05°23' E 100°22'0 0.0
2017-Nov-03 20:30N 05°23' E 100°22'0 0.0
2017-Nov-03 20:00N 05°23' E 100°22'0 0.0
2017-Nov-03 19:30N 05°23' E 100°22'0 0.0
2017-Nov-03 19:00N 05°23' E 100°22'0 0.0
2017-Nov-03 18:30N 05°23' E 100°22'0 0.0
2017-Nov-03 18:00N 05°23' E 100°22'0 0.0
2017-Nov-03 17:30N 05°23' E 100°22'0 0.0
2017-Nov-03 17:00N 05°23' E 100°22'0 0.0
2017-Nov-03 16:30N 05°23' E 100°22'0 0.0
2017-Nov-03 16:00N 05°23' E 100°22'0 0.0
2017-Nov-03 15:30N 05°23' E 100°22'0 0.0
2017-Nov-03 15:00N 05°23' E 100°22'0 0.0
2017-Nov-03 14:30N 05°23' E 100°22'0 0.0
2017-Nov-03 14:00N 05°23' E 100°22'0 0.0
2017-Nov-03 13:30N 05°23' E 100°22'0 0.0
2017-Nov-03 13:00N 05°23' E 100°22'0 0.0
2017-Nov-03 12:18N 05°23' E 100°22'0 0.0
2017-Nov-03 10:48N 05°23' E 100°22'0 0.0
2017-Nov-03 10:30N 05°23' E 100°22'0 0.0
2017-Nov-03 09:54N 05°23' E 100°22'0 0.0
2017-Nov-03 09:30N 05°23' E 100°22'0 0.0
2017-Nov-03 09:00N 05°23' E 100°22'0 0.0
2017-Nov-03 08:30N 05°23' E 100°22'0 0.0
2017-Nov-03 08:00N 05°23' E 100°22'0 0.0
2017-Nov-03 07:24N 05°23' E 100°22'0 0.0
2017-Nov-03 07:00N 05°23' E 100°22'0 0.0
2017-Nov-03 06:30N 05°23' E 100°22'0 0.0
2017-Nov-03 06:00N 05°23' E 100°22'0 0.0
2017-Nov-03 05:30N 05°23' E 100°22'0 0.0
2017-Nov-03 05:00N 05°23' E 100°22'0 0.0
2017-Nov-03 04:30N 05°23' E 100°22'0 0.0
2017-Nov-03 04:00N 05°23' E 100°22'0 0.0
2017-Nov-03 03:30N 05°23' E 100°22'0 0.0
2017-Nov-03 03:00N 05°23' E 100°22'0 0.0
2017-Nov-03 02:30N 05°23' E 100°22'0 0.0
2017-Nov-03 02:00N 05°23' E 100°22'0 0.0
2017-Nov-03 01:30N 05°23' E 100°22'0 0.0
2017-Nov-03 01:00N 05°23' E 100°22'0 0.0
2017-Nov-03 00:30N 05°23' E 100°22'0 0.0
2017-Nov-03 00:00N 05°23' E 100°22'0 0.0
2017-Nov-02 23:30N 05°23' E 100°22'0 0.0
2017-Nov-02 23:00N 05°23' E 100°22'0 0.0
2017-Nov-02 22:30N 05°23' E 100°22'0 0.0
2017-Nov-02 22:00N 05°23' E 100°22'0 0.0
2017-Nov-02 21:30N 05°23' E 100°22'0 0.0
2017-Nov-02 21:00N 05°23' E 100°22'0 0.0
2017-Nov-02 20:30N 05°23' E 100°22'0 0.0
2017-Nov-02 20:00N 05°23' E 100°22'0 0.0
2017-Nov-02 19:30N 05°23' E 100°22'0 0.0
2017-Nov-02 18:54N 05°23' E 100°22'0 0.0
2017-Nov-02 18:18N 05°23' E 100°22'0 0.0
2017-Nov-02 18:00N 05°23' E 100°22'0 0.0
2017-Nov-02 17:00N 05°23' E 100°22'0 0.0
2017-Nov-02 16:30N 05°23' E 100°22'0 0.0
2017-Nov-02 16:00N 05°23' E 100°22'0 0.0
2017-Nov-02 15:24N 05°23' E 100°22'0 0.0
2017-Nov-02 15:00N 05°23' E 100°22'0 0.0
2017-Nov-02 14:30N 05°23' E 100°22'0 0.0
2017-Nov-02 13:54N 05°23' E 100°22'0 0.0
2017-Nov-02 13:30N 05°23' E 100°22'0 0.0
2017-Nov-02 13:00N 05°23' E 100°22'0 0.0
2017-Nov-02 12:30N 05°23' E 100°22'0 0.0
2017-Nov-02 10:18N 05°23' E 100°22'0 0.0
2017-Nov-02 10:00N 05°23' E 100°22'0 0.0
2017-Nov-02 09:30N 05°23' E 100°22'0 0.0
2017-Nov-02 09:00N 05°23' E 100°22'0 0.0
2017-Nov-02 08:30N 05°23' E 100°22'0 0.0
2017-Nov-02 08:00N 05°23' E 100°22'0 0.0
2017-Nov-02 07:30N 05°23' E 100°22'0 0.0
2017-Nov-02 07:00N 05°23' E 100°22'0 0.0
2017-Nov-02 06:30N 05°23' E 100°22'0 0.0
2017-Nov-02 06:00N 05°23' E 100°22'0 0.0
2017-Nov-02 05:30N 05°23' E 100°22'0 0.0
2017-Nov-02 05:00N 05°23' E 100°22'0 0.0
2017-Nov-02 04:24N 05°23' E 100°22'0 0.0
2017-Nov-02 04:00N 05°23' E 100°22'0 0.0
2017-Nov-02 03:30N 05°23' E 100°22'0 0.0
2017-Nov-02 02:48N 05°23' E 100°22'0 0.0
2017-Nov-01 21:48N 05°23' E 100°22'0 0.0
2017-Nov-01 21:24N 05°23' E 100°22'0 0.0
2017-Nov-01 20:54N 05°23' E 100°22'0 0.0
2017-Nov-01 19:18N 05°23' E 100°22'0 0.0
2017-Nov-01 19:00N 05°23' E 100°22'0 0.0
2017-Nov-01 18:30N 05°23' E 100°22'0 0.0
2017-Nov-01 02:00N 05°23' E 100°22'0 0.0
2017-Nov-01 01:30N 05°23' E 100°22'0 0.0
2017-Nov-01 01:00N 05°23' E 100°22'0 0.0
2017-Nov-01 00:24N 05°23' E 100°22'0 0.0
2017-Nov-01 00:00N 05°23' E 100°22'0 0.0
2017-Oct-31 23:30N 05°23' E 100°22'0 0.0
2017-Oct-31 23:00N 05°23' E 100°22'0 0.0
2017-Oct-31 22:30N 05°23' E 100°22'0 0.0
2017-Oct-31 22:00N 05°23' E 100°22'0 0.0
2017-Oct-31 20:42N 05°23' E 100°22'0 0.0
2017-Oct-31 20:12N 05°23' E 100°22'0 0.0
2017-Oct-31 19:54N 05°23' E 100°22'0 0.0
2017-Oct-31 19:30N 05°23' E 100°22'0 0.0
2017-Oct-31 19:00N 05°23' E 100°22'0 0.0
2017-Oct-31 18:30N 05°23' E 100°22'0 0.0
2017-Oct-31 18:00N 05°23' E 100°22'0 0.0
2017-Oct-31 17:30N 05°23' E 100°22'0 0.0
2017-Oct-31 17:00N 05°23' E 100°22'0 0.0
2017-Oct-31 16:30N 05°23' E 100°22'0 0.0
2017-Oct-31 16:00N 05°23' E 100°22'0 0.0
2017-Oct-31 15:30N 05°23' E 100°22'0 0.0
2017-Oct-31 15:00N 05°23' E 100°22'0 0.0
2017-Oct-31 14:30N 05°23' E 100°22'0 0.0
2017-Oct-31 14:00N 05°23' E 100°22'0 0.0
2017-Oct-31 13:24N 05°23' E 100°22'0 0.0
2017-Oct-31 13:00N 05°23' E 100°22'0 0.0
2017-Oct-31 12:30N 05°23' E 100°22'0 0.0
2017-Oct-31 12:00N 05°23' E 100°22'0 0.0
2017-Oct-31 11:30N 05°23' E 100°22'0 0.0
2017-Oct-31 11:00N 05°23' E 100°22'0 0.0
2017-Oct-31 10:30N 05°23' E 100°22'0 0.0
2017-Oct-30 14:48N 05°23' E 100°22'0 0.0
2017-Oct-30 14:18N 05°23' E 100°22'0 0.0
2017-Oct-30 13:12N 05°23' E 100°22'0 0.0
2017-Oct-30 08:18N 05°23' E 100°22'0 0.0
2017-Oct-30 05:18N 05°23' E 100°22'0 0.0
2017-Oct-30 05:00N 05°23' E 100°22'0 0.0
2017-Oct-30 04:30N 05°23' E 100°22'0 0.0
2017-Oct-30 04:00N 05°23' E 100°22'0 0.0
2017-Oct-30 03:30N 05°23' E 100°22'0 0.0
2017-Oct-30 03:00N 05°23' E 100°22'0 0.0
2017-Oct-30 02:30N 05°23' E 100°22'0 0.0
2017-Oct-30 01:54N 05°23' E 100°22'0 0.0
2017-Oct-30 01:24N 05°23' E 100°22'0 0.0
2017-Oct-30 01:00N 05°23' E 100°22'0 0.0
2017-Oct-30 00:24N 05°23' E 100°22'0 0.0
2017-Oct-29 23:54N 05°23' E 100°22'0 0.0
2017-Oct-29 23:30N 05°23' E 100°22'0 0.0
2017-Oct-29 23:00N 05°23' E 100°22'0 0.0
2017-Oct-29 22:30N 05°23' E 100°22'0 0.0
2017-Oct-29 21:06N 05°23' E 100°22'0 0.0
2017-Oct-29 20:48N 05°23' E 100°22'0 0.0
2017-Oct-29 20:18N 05°23' E 100°22'0 0.0
2017-Oct-29 20:00N 05°23' E 100°22'0 0.0
2017-Oct-29 19:30N 05°23' E 100°22'0 0.0
2017-Oct-29 18:42N 05°23' E 100°22'0 0.0
2017-Oct-29 18:30N 05°23' E 100°22'0 0.0
2017-Oct-29 11:36N 05°23' E 100°22'0 0.0
2017-Oct-29 11:30N 05°23' E 100°22'0 0.0
2017-Oct-29 11:00N 05°23' E 100°22'0 0.0
2017-Oct-29 10:30N 05°23' E 100°22'0 0.0
2017-Oct-29 09:42N 05°23' E 100°22'0 0.0
2017-Oct-29 09:12N 05°23' E 100°22'0 0.0
2017-Oct-29 08:48N 05°23' E 100°22'0 0.0
2017-Oct-29 08:30N 05°23' E 100°22'0 0.0
2017-Oct-29 07:36N 05°23' E 100°22'0 0.0
2017-Oct-29 07:18N 05°23' E 100°22'0 0.0
2017-Oct-29 06:42N 05°23' E 100°22'0 0.0
2017-Oct-29 06:06N 05°23' E 100°22'0 0.0
2017-Oct-29 06:00N 05°23' E 100°22'0 0.0
2017-Oct-29 03:48N 05°23' E 100°22'1 0.1
2017-Oct-28 18:55N 05°22' E 100°22'0 0.0
2017-Oct-28 18:25N 05°22' E 100°22'0 0.0
2017-Oct-28 17:55N 05°22' E 100°22'0 0.0
2017-Oct-28 17:25N 05°22' E 100°22'0 0.0
2017-Oct-28 16:55N 05°22' E 100°22'0 0.0
2017-Oct-28 16:25N 05°22' E 100°22'0 0.0
2017-Oct-28 15:55N 05°22' E 100°22'0 0.0
2017-Oct-28 15:25N 05°22' E 100°22'0 0.0
2017-Oct-28 14:55N 05°22' E 100°22'0 0.0
2017-Oct-28 14:25N 05°22' E 100°22'0 0.0
2017-Oct-28 13:55N 05°22' E 100°22'0 0.0
2017-Oct-28 13:25N 05°22' E 100°22'0 0.0
2017-Oct-28 12:55N 05°22' E 100°22'0 0.0
2017-Oct-28 12:25N 05°22' E 100°22'0 0.0
2017-Oct-28 11:55N 05°22' E 100°22'0 0.0
2017-Oct-28 11:25N 05°22' E 100°22'0 0.0
2017-Oct-28 10:55N 05°22' E 100°22'0 0.0
2017-Oct-28 10:25N 05°22' E 100°22'0 0.0
2017-Oct-28 09:55N 05°22' E 100°22'0 0.0
2017-Oct-28 09:25N 05°22' E 100°22'0 0.0
2017-Oct-28 08:55N 05°22' E 100°22'0 0.0
2017-Oct-28 08:19N 05°22' E 100°22'0 0.0
2017-Oct-28 07:55N 05°22' E 100°22'0 0.0
2017-Oct-28 07:25N 05°22' E 100°22'0 0.0
2017-Oct-28 06:55N 05°22' E 100°22'0 0.0
2017-Oct-28 06:25N 05°22' E 100°22'0 0.0
2017-Oct-28 05:55N 05°22' E 100°22'0 0.0
2017-Oct-28 05:25N 05°22' E 100°22'0 0.0
2017-Oct-28 04:55N 05°22' E 100°22'0 0.0
2017-Oct-28 04:25N 05°22' E 100°22'0 0.0
2017-Oct-28 03:55N 05°22' E 100°22'0 0.0
2017-Oct-28 03:25N 05°22' E 100°22'0 0.0
2017-Oct-28 02:55N 05°22' E 100°22'0 0.0
2017-Oct-28 02:25N 05°22' E 100°22'0 0.0
2017-Oct-28 01:55N 05°22' E 100°22'0 0.0
2017-Oct-28 01:25N 05°22' E 100°22'0 0.0
2017-Oct-28 00:49N 05°22' E 100°22'0 0.0
2017-Oct-28 00:25N 05°22' E 100°22'0 0.0
2017-Oct-27 23:55N 05°22' E 100°22'0 0.0
2017-Oct-27 23:25N 05°22' E 100°22'0 0.0
2017-Oct-27 22:55N 05°22' E 100°22'0 0.0
2017-Oct-27 22:25N 05°22' E 100°22'0 0.0
2017-Oct-27 21:55N 05°22' E 100°22'0 0.0
2017-Oct-27 21:25N 05°22' E 100°22'0 0.0
2017-Oct-27 20:55N 05°22' E 100°22'0 0.0
2017-Oct-27 20:25N 05°22' E 100°22'0 0.0
2017-Oct-27 19:55N 05°22' E 100°22'0 0.0
2017-Oct-27 19:25N 05°22' E 100°22'0 0.0
2017-Oct-27 18:55N 05°22' E 100°22'0 0.0
2017-Oct-27 18:25N 05°22' E 100°22'0 0.0
2017-Oct-27 17:55N 05°22' E 100°22'0 0.0
2017-Oct-27 17:25N 05°22' E 100°22'0 0.0
2017-Oct-27 16:55N 05°22' E 100°22'0 0.0
2017-Oct-27 16:25N 05°22' E 100°22'0 0.0
2017-Oct-27 15:49N 05°22' E 100°22'0 0.0
2017-Oct-27 15:25N 05°22' E 100°22'0 0.0
2017-Oct-27 14:55N 05°22' E 100°22'0 0.0
2017-Oct-27 14:25N 05°22' E 100°22'0 0.0
2017-Oct-27 13:55N 05°22' E 100°22'0 0.0
2017-Oct-27 13:25N 05°22' E 100°22'0 0.0
2017-Oct-27 12:55N 05°22' E 100°22'0 0.0
2017-Oct-27 12:25N 05°22' E 100°22'0 0.0
2017-Oct-27 11:55N 05°22' E 100°22'0 0.0
2017-Oct-27 11:25N 05°22' E 100°22'0 0.0
2017-Oct-27 10:55N 05°22' E 100°22'0 0.0
2017-Oct-27 10:25N 05°22' E 100°22'0 0.0
2017-Oct-27 09:55N 05°22' E 100°22'0 0.0
2017-Oct-27 09:25N 05°22' E 100°22'0 0.0
2017-Oct-27 08:55N 05°22' E 100°22'0 0.0
2017-Oct-27 08:25N 05°22' E 100°22'0 0.0
2017-Oct-27 07:55N 05°22' E 100°22'0 0.0
2017-Oct-27 07:25N 05°22' E 100°22'0 0.0
2017-Oct-27 06:55N 05°22' E 100°22'0 0.0
2017-Oct-27 06:25N 05°22' E 100°22'0 0.0
2017-Oct-27 05:55N 05°22' E 100°22'0 0.0
2017-Oct-27 05:25N 05°22' E 100°22'0 0.0
2017-Oct-27 04:55N 05°22' E 100°22'0 0.0
2017-Oct-27 04:25N 05°22' E 100°22'0 0.0
2017-Oct-27 03:55N 05°22' E 100°22'0 0.0
2017-Oct-27 03:25N 05°22' E 100°22'0 0.0
2017-Oct-27 02:55N 05°22' E 100°22'  
Track history (hours):
 
Tides and Currents Weather Stations Pressure Air Temp Water Temp Dewpoint Dewpoint Depression Visibility Wind Speed Wind Dir Waves Ship Positions

New Everest

Last reported at 2017-Nov-06 02:30 UTC. Time now 2017-Nov-24 15:16 UTC.
Position N 01°15' E 103°53'.
Warning: this ship's position is 18 days out of date.

Length 176 m; draft 6.2 m.

Type: Cargo ship. MMSI: 372865000.

Date/timePositionNaut miles runAvg speedWind from/ knotsBaromVisibWave heightAir tempDewpointWater temp
2017-Nov-06 02:30N 01°15' E 103°53'0 0.0
2017-Nov-06 02:00N 01°15' E 103°53'0 0.1
2017-Nov-06 01:30N 01°15' E 103°53'0 0.0
2017-Nov-06 01:00N 01°15' E 103°53'0 0.0
2017-Nov-06 00:30N 01°15' E 103°53'0 0.0
2017-Nov-06 00:00N 01°15' E 103°53'0 0.0
2017-Nov-05 23:24N 01°15' E 103°53'0 0.0
2017-Nov-05 23:00N 01°15' E 103°53'0 0.0
2017-Nov-05 22:30N 01°15' E 103°53'0 0.0
2017-Nov-05 22:00N 01°15' E 103°53'0 0.1
2017-Nov-05 21:30N 01°15' E 103°53'0 0.0
2017-Nov-05 21:00N 01°15' E 103°53'0 0.0
2017-Nov-05 20:30N 01°15' E 103°53'0 0.1
2017-Nov-05 20:00N 01°15' E 103°53'0 0.1
2017-Nov-05 19:27N 01°15' E 103°53'0 0.0
2017-Nov-05 19:00N 01°15' E 103°53'0 0.1
2017-Nov-05 18:30N 01°15' E 103°53'0 0.1
2017-Nov-05 18:00N 01°15' E 103°53'0 0.7
2017-Nov-05 17:30N 01°15' E 103°53'2 3.7
2017-Nov-05 17:00N 01°13' E 103°53'4 8.2
2017-Nov-05 16:30N 01°11' E 103°50'5 9.3
2017-Nov-05 16:00N 01°08' E 103°46'5 9.7
2017-Nov-05 15:30N 01°04' E 103°43'5 8.7
2017-Nov-05 14:59N 01°03' E 103°38'4 8.5
2017-Nov-05 14:30N 01°05' E 103°35'4 6.9
2017-Nov-05 13:58N 01°07' E 103°32'611.8
2017-Nov-05 13:29N 01°09' E 103°27'612.1
2017-Nov-05 12:57N 01°13' E 103°22'30911.8
2017-Nov-04 10:49N 05°13' E 100°05'510.5
2017-Nov-04 10:20N 05°18' E 100°05'411.3
2017-Nov-04 10:00N 05°22' E 100°05'711.6
2017-Nov-04 09:24N 05°28' E 100°07'512.5
2017-Nov-04 08:59N 05°32' E 100°10'510.3
2017-Nov-04 08:30N 05°34' E 100°15'510.4
2017-Nov-04 08:01N 05°31' E 100°19'5 9.9
2017-Nov-04 07:30N 05°26' E 100°21'3 5.5
2017-Nov-04 07:00N 05°23' E 100°22'0 0.0
2017-Nov-04 06:30N 05°23' E 100°22'0 0.0
2017-Nov-04 06:00N 05°23' E 100°22'0 0.0
2017-Nov-04 05:30N 05°23' E 100°22'0 0.0
2017-Nov-04 05:00N 05°23' E 100°22'0 0.0
2017-Nov-04 04:30N 05°23' E 100°22'0 0.0
2017-Nov-04 04:00N 05°23' E 100°22'0 0.0
2017-Nov-04 03:30N 05°23' E 100°22'0 0.0
2017-Nov-04 03:00N 05°23' E 100°22'0 0.0
2017-Nov-04 02:30N 05°23' E 100°22'0 0.0
2017-Nov-04 02:00N 05°23' E 100°22'0 0.0
2017-Nov-04 01:30N 05°23' E 100°22'0 0.0
2017-Nov-04 01:00N 05°23' E 100°22'0 0.0
2017-Nov-04 00:30N 05°23' E 100°22'0 0.0
2017-Nov-04 00:00N 05°23' E 100°22'0 0.1
2017-Nov-03 23:30N 05°23' E 100°22'0 0.1
2017-Nov-03 23:00N 05°23' E 100°22'0 0.0
2017-Nov-03 22:30N 05°23' E 100°22'0 0.0
2017-Nov-03 22:00N 05°23' E 100°22'0 0.0
2017-Nov-03 21:30N 05°23' E 100°22'0 0.0
2017-Nov-03 21:00N 05°23' E 100°22'0 0.0
2017-Nov-03 20:30N 05°23' E 100°22'0 0.0
2017-Nov-03 20:00N 05°23' E 100°22'0 0.0
2017-Nov-03 19:30N 05°23' E 100°22'0 0.0
2017-Nov-03 19:00N 05°23' E 100°22'0 0.0
2017-Nov-03 18:30N 05°23' E 100°22'0 0.0
2017-Nov-03 18:00N 05°23' E 100°22'0 0.0
2017-Nov-03 17:30N 05°23' E 100°22'0 0.0
2017-Nov-03 17:00N 05°23' E 100°22'0 0.0
2017-Nov-03 16:30N 05°23' E 100°22'0 0.0
2017-Nov-03 16:00N 05°23' E 100°22'0 0.0
2017-Nov-03 15:30N 05°23' E 100°22'0 0.0
2017-Nov-03 15:00N 05°23' E 100°22'0 0.0
2017-Nov-03 14:30N 05°23' E 100°22'0 0.0
2017-Nov-03 14:00N 05°23' E 100°22'0 0.0
2017-Nov-03 13:30N 05°23' E 100°22'0 0.0
2017-Nov-03 13:00N 05°23' E 100°22'0 0.0
2017-Nov-03 12:18N 05°23' E 100°22'0 0.0
2017-Nov-03 10:48N 05°23' E 100°22'0 0.0
2017-Nov-03 10:30N 05°23' E 100°22'0 0.0
2017-Nov-03 09:54N 05°23' E 100°22'0 0.0
2017-Nov-03 09:30N 05°23' E 100°22'0 0.0
2017-Nov-03 09:00N 05°23' E 100°22'0 0.0
2017-Nov-03 08:30N 05°23' E 100°22'0 0.0
2017-Nov-03 08:00N 05°23' E 100°22'0 0.0
2017-Nov-03 07:24N 05°23' E 100°22'0 0.0
2017-Nov-03 07:00N 05°23' E 100°22'0 0.0
2017-Nov-03 06:30N 05°23' E 100°22'0 0.0
2017-Nov-03 06:00N 05°23' E 100°22'0 0.0
2017-Nov-03 05:30N 05°23' E 100°22'0 0.0
2017-Nov-03 05:00N 05°23' E 100°22'0 0.0
2017-Nov-03 04:30N 05°23' E 100°22'0 0.0
2017-Nov-03 04:00N 05°23' E 100°22'0 0.0
2017-Nov-03 03:30N 05°23' E 100°22'0 0.0
2017-Nov-03 03:00N 05°23' E 100°22'0 0.0
2017-Nov-03 02:30N 05°23' E 100°22'0 0.0
2017-Nov-03 02:00N 05°23' E 100°22'0 0.0
2017-Nov-03 01:30N 05°23' E 100°22'0 0.0
2017-Nov-03 01:00N 05°23' E 100°22'0 0.0
2017-Nov-03 00:30N 05°23' E 100°22'0 0.0
2017-Nov-03 00:00N 05°23' E 100°22'0 0.0
2017-Nov-02 23:30N 05°23' E 100°22'0 0.0
2017-Nov-02 23:00N 05°23' E 100°22'0 0.0
2017-Nov-02 22:30N 05°23' E 100°22'0 0.0
2017-Nov-02 22:00N 05°23' E 100°22'0 0.0
2017-Nov-02 21:30N 05°23' E 100°22'0 0.0
2017-Nov-02 21:00N 05°23' E 100°22'0 0.0
2017-Nov-02 20:30N 05°23' E 100°22'0 0.0
2017-Nov-02 20:00N 05°23' E 100°22'0 0.0
2017-Nov-02 19:30N 05°23' E 100°22'0 0.0
2017-Nov-02 18:54N 05°23' E 100°22'0 0.0
2017-Nov-02 18:18N 05°23' E 100°22'0 0.0
2017-Nov-02 18:00N 05°23' E 100°22'0 0.0
2017-Nov-02 17:00N 05°23' E 100°22'0 0.0
2017-Nov-02 16:30N 05°23' E 100°22'0 0.0
2017-Nov-02 16:00N 05°23' E 100°22'0 0.0
2017-Nov-02 15:24N 05°23' E 100°22'0 0.0
2017-Nov-02 15:00N 05°23' E 100°22'0 0.0
2017-Nov-02 14:30N 05°23' E 100°22'0 0.0
2017-Nov-02 13:54N 05°23' E 100°22'0 0.0
2017-Nov-02 13:30N 05°23' E 100°22'0 0.0
2017-Nov-02 13:00N 05°23' E 100°22'0 0.0
2017-Nov-02 12:30N 05°23' E 100°22'0 0.0
2017-Nov-02 10:18N 05°23' E 100°22'0 0.0
2017-Nov-02 10:00N 05°23' E 100°22'0 0.0
2017-Nov-02 09:30N 05°23' E 100°22'0 0.0
2017-Nov-02 09:00N 05°23' E 100°22'0 0.0
2017-Nov-02 08:30N 05°23' E 100°22'0 0.0
2017-Nov-02 08:00N 05°23' E 100°22'0 0.0
2017-Nov-02 07:30N 05°23' E 100°22'0 0.0
2017-Nov-02 07:00N 05°23' E 100°22'0 0.0
2017-Nov-02 06:30N 05°23' E 100°22'0 0.0
2017-Nov-02 06:00N 05°23' E 100°22'0 0.0
2017-Nov-02 05:30N 05°23' E 100°22'0 0.0
2017-Nov-02 05:00N 05°23' E 100°22'0 0.0
2017-Nov-02 04:24N 05°23' E 100°22'0 0.0
2017-Nov-02 04:00N 05°23' E 100°22'0 0.0
2017-Nov-02 03:30N 05°23' E 100°22'0 0.0
2017-Nov-02 02:48N 05°23' E 100°22'0 0.0
2017-Nov-01 21:48N 05°23' E 100°22'0 0.0
2017-Nov-01 21:24N 05°23' E 100°22'0 0.0
2017-Nov-01 20:54N 05°23' E 100°22'0 0.0
2017-Nov-01 19:18N 05°23' E 100°22'0 0.0
2017-Nov-01 19:00N 05°23' E 100°22'0 0.0
2017-Nov-01 18:30N 05°23' E 100°22'0 0.0
2017-Nov-01 02:00N 05°23' E 100°22'0 0.0
2017-Nov-01 01:30N 05°23' E 100°22'0 0.0
2017-Nov-01 01:00N 05°23' E 100°22'0 0.0
2017-Nov-01 00:24N 05°23' E 100°22'0 0.0
2017-Nov-01 00:00N 05°23' E 100°22'0 0.0
2017-Oct-31 23:30N 05°23' E 100°22'0 0.0
2017-Oct-31 23:00N 05°23' E 100°22'0 0.0
2017-Oct-31 22:30N 05°23' E 100°22'0 0.0
2017-Oct-31 22:00N 05°23' E 100°22'0 0.0
2017-Oct-31 20:42N 05°23' E 100°22'0 0.0
2017-Oct-31 20:12N 05°23' E 100°22'0 0.0
2017-Oct-31 19:54N 05°23' E 100°22'0 0.0
2017-Oct-31 19:30N 05°23' E 100°22'0 0.0
2017-Oct-31 19:00N 05°23' E 100°22'0 0.0
2017-Oct-31 18:30N 05°23' E 100°22'0 0.0
2017-Oct-31 18:00N 05°23' E 100°22'0 0.0
2017-Oct-31 17:30N 05°23' E 100°22'0 0.0
2017-Oct-31 17:00N 05°23' E 100°22'0 0.0
2017-Oct-31 16:30N 05°23' E 100°22'0 0.0
2017-Oct-31 16:00N 05°23' E 100°22'0 0.0
2017-Oct-31 15:30N 05°23' E 100°22'0 0.0
2017-Oct-31 15:00N 05°23' E 100°22'0 0.0
2017-Oct-31 14:30N 05°23' E 100°22'0 0.0
2017-Oct-31 14:00N 05°23' E 100°22'0 0.0
2017-Oct-31 13:24N 05°23' E 100°22'0 0.0
2017-Oct-31 13:00N 05°23' E 100°22'0 0.0
2017-Oct-31 12:30N 05°23' E 100°22'0 0.0
2017-Oct-31 12:00N 05°23' E 100°22'0 0.0
2017-Oct-31 11:30N 05°23' E 100°22'0 0.0
2017-Oct-31 11:00N 05°23' E 100°22'0 0.0
2017-Oct-31 10:30N 05°23' E 100°22'0 0.0
2017-Oct-30 14:48N 05°23' E 100°22'0 0.0
2017-Oct-30 14:18N 05°23' E 100°22'0 0.0
2017-Oct-30 13:12N 05°23' E 100°22'0 0.0
2017-Oct-30 08:18N 05°23' E 100°22'0 0.0
2017-Oct-30 05:18N 05°23' E 100°22'0 0.0
2017-Oct-30 05:00N 05°23' E 100°22'0 0.0
2017-Oct-30 04:30N 05°23' E 100°22'0 0.0
2017-Oct-30 04:00N 05°23' E 100°22'0 0.0
2017-Oct-30 03:30N 05°23' E 100°22'0 0.0
2017-Oct-30 03:00N 05°23' E 100°22'0 0.0
2017-Oct-30 02:30N 05°23' E 100°22'0 0.0
2017-Oct-30 01:54N 05°23' E 100°22'0 0.0
2017-Oct-30 01:24N 05°23' E 100°22'0 0.0
2017-Oct-30 01:00N 05°23' E 100°22'0 0.0
2017-Oct-30 00:24N 05°23' E 100°22'0 0.0
2017-Oct-29 23:54N 05°23' E 100°22'0 0.0
2017-Oct-29 23:30N 05°23' E 100°22'0 0.0
2017-Oct-29 23:00N 05°23' E 100°22'0 0.0
2017-Oct-29 22:30N 05°23' E 100°22'0 0.0
2017-Oct-29 21:06N 05°23' E 100°22'0 0.0
2017-Oct-29 20:48N 05°23' E 100°22'0 0.0
2017-Oct-29 20:18N 05°23' E 100°22'0 0.0
2017-Oct-29 20:00N 05°23' E 100°22'0 0.0
2017-Oct-29 19:30N 05°23' E 100°22'0 0.0
2017-Oct-29 18:42N 05°23' E 100°22'0 0.0
2017-Oct-29 18:30N 05°23' E 100°22'0 0.0
2017-Oct-29 11:36N 05°23' E 100°22'0 0.0
2017-Oct-29 11:30N 05°23' E 100°22'0 0.0
2017-Oct-29 11:00N 05°23' E 100°22'0 0.0
2017-Oct-29 10:30N 05°23' E 100°22'0 0.0
2017-Oct-29 09:42N 05°23' E 100°22'0 0.0
2017-Oct-29 09:12N 05°23' E 100°22'0 0.0
2017-Oct-29 08:48N 05°23' E 100°22'0 0.0
2017-Oct-29 08:30N 05°23' E 100°22'0 0.0
2017-Oct-29 07:36N 05°23' E 100°22'0 0.0
2017-Oct-29 07:18N 05°23' E 100°22'0 0.0
2017-Oct-29 06:42N 05°23' E 100°22'0 0.0
2017-Oct-29 06:06N 05°23' E 100°22'0 0.0
2017-Oct-29 06:00N 05°23' E 100°22'0 0.0
2017-Oct-29 03:48N 05°23' E 100°22'1 0.1
2017-Oct-28 18:55N 05°22' E 100°22'0 0.0
2017-Oct-28 18:25N 05°22' E 100°22'0 0.0
2017-Oct-28 17:55N 05°22' E 100°22'0 0.0
2017-Oct-28 17:25N 05°22' E 100°22'0 0.0
2017-Oct-28 16:55N 05°22' E 100°22'0 0.0
2017-Oct-28 16:25N 05°22' E 100°22'0 0.0
2017-Oct-28 15:55N 05°22' E 100°22'0 0.0
2017-Oct-28 15:25N 05°22' E 100°22'0 0.0
2017-Oct-28 14:55N 05°22' E 100°22'0 0.0
2017-Oct-28 14:25N 05°22' E 100°22'0 0.0
2017-Oct-28 13:55N 05°22' E 100°22'0 0.0
2017-Oct-28 13:25N 05°22' E 100°22'0 0.0
2017-Oct-28 12:55N 05°22' E 100°22'0 0.0
2017-Oct-28 12:25N 05°22' E 100°22'0 0.0
2017-Oct-28 11:55N 05°22' E 100°22'0 0.0
2017-Oct-28 11:25N 05°22' E 100°22'0 0.0
2017-Oct-28 10:55N 05°22' E 100°22'0 0.0
2017-Oct-28 10:25N 05°22' E 100°22'0 0.0
2017-Oct-28 09:55N 05°22' E 100°22'0 0.0
2017-Oct-28 09:25N 05°22' E 100°22'0 0.0
2017-Oct-28 08:55N 05°22' E 100°22'0 0.0
2017-Oct-28 08:19N 05°22' E 100°22'0 0.0
2017-Oct-28 07:55N 05°22' E 100°22'0 0.0
2017-Oct-28 07:25N 05°22' E 100°22'0 0.0
2017-Oct-28 06:55N 05°22' E 100°22'0 0.0
2017-Oct-28 06:25N 05°22' E 100°22'0 0.0
2017-Oct-28 05:55N 05°22' E 100°22'0 0.0
2017-Oct-28 05:25N 05°22' E 100°22'0 0.0
2017-Oct-28 04:55N 05°22' E 100°22'0 0.0
2017-Oct-28 04:25N 05°22' E 100°22'0 0.0
2017-Oct-28 03:55N 05°22' E 100°22'0 0.0
2017-Oct-28 03:25N 05°22' E 100°22'0 0.0
2017-Oct-28 02:55N 05°22' E 100°22'0 0.0
2017-Oct-28 02:25N 05°22' E 100°22'0 0.0
2017-Oct-28 01:55N 05°22' E 100°22'0 0.0
2017-Oct-28 01:25N 05°22' E 100°22'0 0.0
2017-Oct-28 00:49N 05°22' E 100°22'0 0.0
2017-Oct-28 00:25N 05°22' E 100°22'0 0.0
2017-Oct-27 23:55N 05°22' E 100°22'0 0.0
2017-Oct-27 23:25N 05°22' E 100°22'0 0.0
2017-Oct-27 22:55N 05°22' E 100°22'0 0.0
2017-Oct-27 22:25N 05°22' E 100°22'0 0.0
2017-Oct-27 21:55N 05°22' E 100°22'0 0.0
2017-Oct-27 21:25N 05°22' E 100°22'0 0.0
2017-Oct-27 20:55N 05°22' E 100°22'0 0.0
2017-Oct-27 20:25N 05°22' E 100°22'0 0.0
2017-Oct-27 19:55N 05°22' E 100°22'0 0.0
2017-Oct-27 19:25N 05°22' E 100°22'0 0.0
2017-Oct-27 18:55N 05°22' E 100°22'0 0.0
2017-Oct-27 18:25N 05°22' E 100°22'0 0.0
2017-Oct-27 17:55N 05°22' E 100°22'0 0.0
2017-Oct-27 17:25N 05°22' E 100°22'0 0.0
2017-Oct-27 16:55N 05°22' E 100°22'0 0.0
2017-Oct-27 16:25N 05°22' E 100°22'0 0.0
2017-Oct-27 15:49N 05°22' E 100°22'0 0.0
2017-Oct-27 15:25N 05°22' E 100°22'0 0.0
2017-Oct-27 14:55N 05°22' E 100°22'0 0.0
2017-Oct-27 14:25N 05°22' E 100°22'0 0.0
2017-Oct-27 13:55N 05°22' E 100°22'0 0.0
2017-Oct-27 13:25N 05°22' E 100°22'0 0.0
2017-Oct-27 12:55N 05°22' E 100°22'0 0.0
2017-Oct-27 12:25N 05°22' E 100°22'0 0.0
2017-Oct-27 11:55N 05°22' E 100°22'0 0.0
2017-Oct-27 11:25N 05°22' E 100°22'0 0.0
2017-Oct-27 10:55N 05°22' E 100°22'0 0.0
2017-Oct-27 10:25N 05°22' E 100°22'0 0.0
2017-Oct-27 09:55N 05°22' E 100°22'0 0.0
2017-Oct-27 09:25N 05°22' E 100°22'0 0.0
2017-Oct-27 08:55N 05°22' E 100°22'0 0.0
2017-Oct-27 08:25N 05°22' E 100°22'0 0.0
2017-Oct-27 07:55N 05°22' E 100°22'0 0.0
2017-Oct-27 07:25N 05°22' E 100°22'0 0.0
2017-Oct-27 06:55N 05°22' E 100°22'0 0.0
2017-Oct-27 06:25N 05°22' E 100°22'0 0.0
2017-Oct-27 05:55N 05°22' E 100°22'0 0.0
2017-Oct-27 05:25N 05°22' E 100°22'0 0.0
2017-Oct-27 04:55N 05°22' E 100°22'0 0.0
2017-Oct-27 04:25N 05°22' E 100°22'0 0.0
2017-Oct-27 03:55N 05°22' E 100°22'0 0.0
2017-Oct-27 03:25N 05°22' E 100°22'0 0.0
2017-Oct-27 02:55N 05°22' E 100°22'  

Dump ship's entire track history